sensor_id;sensor_type;location;lat;lon;timestamp;temperature;humidity
20839;DHT22;10580;51.092;6.828;2022-09-09T00:02:20;16.50;99.90
20839;DHT22;10580;51.092;6.828;2022-09-09T00:05:04;16.50;99.90
20839;DHT22;10580;51.092;6.828;2022-09-09T00:10:19;16.40;99.90
20839;DHT22;10580;51.092;6.828;2022-09-09T00:15:29;16.40;99.90
20839;DHT22;10580;51.092;6.828;2022-09-09T00:18:05;16.40;99.90
20839;DHT22;10580;51.092;6.828;2022-09-09T00:20:43;16.40;99.90
20839;DHT22;10580;51.092;6.828;2022-09-09T00:23:20;16.40;99.90
20839;DHT22;10580;51.092;6.828;2022-09-09T00:28:27;16.40;99.90
20839;DHT22;10580;51.092;6.828;2022-09-09T00:30:55;16.40;99.90
20839;DHT22;10580;51.092;6.828;2022-09-09T00:33:23;16.50;99.90
20839;DHT22;10580;51.092;6.828;2022-09-09T00:36:14;16.40;99.90
20839;DHT22;10580;51.092;6.828;2022-09-09T00:38:45;16.50;99.90
20839;DHT22;10580;51.092;6.828;2022-09-09T00:41:48;16.50;99.90
20839;DHT22;10580;51.092;6.828;2022-09-09T00:52:57;16.60;99.90
20839;DHT22;10580;51.092;6.828;2022-09-09T00:57:53;16.50;99.90
20839;DHT22;10580;51.092;6.828;2022-09-09T01:00:31;16.50;99.90
20839;DHT22;10580;51.092;6.828;2022-09-09T01:03:22;16.50;99.90
20839;DHT22;10580;51.092;6.828;2022-09-09T01:06:15;16.50;99.90
20839;DHT22;10580;51.092;6.828;2022-09-09T01:11:27;16.50;99.90
20839;DHT22;10580;51.092;6.828;2022-09-09T01:14:05;16.50;99.90
20839;DHT22;10580;51.092;6.828;2022-09-09T01:16:35;16.50;99.90
20839;DHT22;10580;51.092;6.828;2022-09-09T01:19:03;16.30;99.90
20839;DHT22;10580;51.092;6.828;2022-09-09T01:21:48;16.30;99.90
20839;DHT22;10580;51.092;6.828;2022-09-09T01:27:04;16.30;99.90
20839;DHT22;10580;51.092;6.828;2022-09-09T01:29:31;16.30;99.90
20839;DHT22;10580;51.092;6.828;2022-09-09T01:32:02;16.20;99.90
20839;DHT22;10580;51.092;6.828;2022-09-09T01:34:38;16.20;99.90
20839;DHT22;10580;51.092;6.828;2022-09-09T01:37:08;16.10;99.90
20839;DHT22;10580;51.092;6.828;2022-09-09T01:39:37;16.20;99.90
20839;DHT22;10580;51.092;6.828;2022-09-09T01:42:05;16.20;99.90
20839;DHT22;10580;51.092;6.828;2022-09-09T01:44:32;16.30;99.90
20839;DHT22;10580;51.092;6.828;2022-09-09T01:46:58;16.30;99.90
20839;DHT22;10580;51.092;6.828;2022-09-09T01:49:23;16.40;99.90
20839;DHT22;10580;51.092;6.828;2022-09-09T01:51:55;16.50;99.90
20839;DHT22;10580;51.092;6.828;2022-09-09T01:54:23;16.50;99.90
20839;DHT22;10580;51.092;6.828;2022-09-09T02:02:13;16.60;99.90
20839;DHT22;10580;51.092;6.828;2022-09-09T02:04:56;16.70;99.90
20839;DHT22;10580;51.092;6.828;2022-09-09T02:10:30;16.70;99.90
20839;DHT22;10580;51.092;6.828;2022-09-09T02:13:07;16.70;99.90
20839;DHT22;10580;51.092;6.828;2022-09-09T02:18:01;16.60;99.90
20839;DHT22;10580;51.092;6.828;2022-09-09T02:20:31;16.60;99.90
20839;DHT22;10580;51.092;6.828;2022-09-09T02:22:59;16.60;99.90
20839;DHT22;10580;51.092;6.828;2022-09-09T02:25:28;16.60;99.90
20839;DHT22;10580;51.092;6.828;2022-09-09T02:27:55;16.60;99.90
20839;DHT22;10580;51.092;6.828;2022-09-09T02:30:23;16.60;99.90
20839;DHT22;10580;51.092;6.828;2022-09-09T02:32:51;16.60;99.90
20839;DHT22;10580;51.092;6.828;2022-09-09T02:35:21;16.60;99.90
20839;DHT22;10580;51.092;6.828;2022-09-09T02:37:49;16.50;99.90
20839;DHT22;10580;51.092;6.828;2022-09-09T02:40:16;16.50;99.90
20839;DHT22;10580;51.092;6.828;2022-09-09T02:42:50;16.50;99.90
20839;DHT22;10580;51.092;6.828;2022-09-09T02:45:25;16.50;99.90
20839;DHT22;10580;51.092;6.828;2022-09-09T02:53:12;16.50;99.90
20839;DHT22;10580;51.092;6.828;2022-09-09T02:55:42;16.50;99.90
20839;DHT22;10580;51.092;6.828;2022-09-09T02:58:12;16.50;99.90
20839;DHT22;10580;51.092;6.828;2022-09-09T03:00:42;16.50;99.90
20839;DHT22;10580;51.092;6.828;2022-09-09T03:03:08;16.50;99.90
20839;DHT22;10580;51.092;6.828;2022-09-09T03:05:34;16.50;99.90
20839;DHT22;10580;51.092;6.828;2022-09-09T03:08:01;16.50;99.90
20839;DHT22;10580;51.092;6.828;2022-09-09T03:10:27;16.40;99.90
20839;DHT22;10580;51.092;6.828;2022-09-09T03:12:53;16.40;99.90
20839;DHT22;10580;51.092;6.828;2022-09-09T03:15:18;16.50;99.90
20839;DHT22;10580;51.092;6.828;2022-09-09T03:17:44;16.50;99.90
20839;DHT22;10580;51.092;6.828;2022-09-09T03:20:10;16.50;99.90
20839;DHT22;10580;51.092;6.828;2022-09-09T03:22:35;16.50;99.90
20839;DHT22;10580;51.092;6.828;2022-09-09T03:25:01;16.50;99.90
20839;DHT22;10580;51.092;6.828;2022-09-09T03:27:28;16.50;99.90
20839;DHT22;10580;51.092;6.828;2022-09-09T03:29:54;16.50;99.90
20839;DHT22;10580;51.092;6.828;2022-09-09T03:32:21;16.50;99.90
20839;DHT22;10580;51.092;6.828;2022-09-09T03:34:48;16.60;99.90
20839;DHT22;10580;51.092;6.828;2022-09-09T03:37:15;16.60;99.90
20839;DHT22;10580;51.092;6.828;2022-09-09T03:39:43;16.70;99.90
20839;DHT22;10580;51.092;6.828;2022-09-09T03:42:08;16.70;99.90
20839;DHT22;10580;51.092;6.828;2022-09-09T03:44:34;16.70;99.90
20839;DHT22;10580;51.092;6.828;2022-09-09T03:47:00;16.70;99.90
20839;DHT22;10580;51.092;6.828;2022-09-09T03:49:26;16.80;99.90
20839;DHT22;10580;51.092;6.828;2022-09-09T03:51:54;16.80;99.90
20839;DHT22;10580;51.092;6.828;2022-09-09T03:54:20;16.80;99.90
20839;DHT22;10580;51.092;6.828;2022-09-09T03:56:45;16.80;99.90
20839;DHT22;10580;51.092;6.828;2022-09-09T03:59:11;16.80;99.90
20839;DHT22;10580;51.092;6.828;2022-09-09T04:01:37;16.80;99.90
20839;DHT22;10580;51.092;6.828;2022-09-09T04:04:02;16.80;99.90
20839;DHT22;10580;51.092;6.828;2022-09-09T04:06:28;16.80;99.90
20839;DHT22;10580;51.092;6.828;2022-09-09T04:08:55;16.80;99.90
20839;DHT22;10580;51.092;6.828;2022-09-09T04:11:21;16.80;99.90
20839;DHT22;10580;51.092;6.828;2022-09-09T04:13:46;16.80;99.90
20839;DHT22;10580;51.092;6.828;2022-09-09T04:16:12;16.80;99.90
20839;DHT22;10580;51.092;6.828;2022-09-09T04:18:41;16.80;99.90
20839;DHT22;10580;51.092;6.828;2022-09-09T04:21:08;16.80;99.90
20839;DHT22;10580;51.092;6.828;2022-09-09T04:23:34;16.90;99.90
20839;DHT22;10580;51.092;6.828;2022-09-09T04:26:01;16.80;99.90
20839;DHT22;10580;51.092;6.828;2022-09-09T04:28:29;16.90;99.90
20839;DHT22;10580;51.092;6.828;2022-09-09T04:30:56;16.80;99.90
20839;DHT22;10580;51.092;6.828;2022-09-09T04:33:25;16.80;99.90
20839;DHT22;10580;51.092;6.828;2022-09-09T04:35:52;16.80;99.90
20839;DHT22;10580;51.092;6.828;2022-09-09T04:38:19;16.80;99.90
20839;DHT22;10580;51.092;6.828;2022-09-09T04:40:49;16.80;99.90
20839;DHT22;10580;51.092;6.828;2022-09-09T04:43:15;16.80;99.90
20839;DHT22;10580;51.092;6.828;2022-09-09T04:45:42;16.80;99.90
20839;DHT22;10580;51.092;6.828;2022-09-09T04:48:08;16.80;99.90
20839;DHT22;10580;51.092;6.828;2022-09-09T04:50:35;16.80;99.90
20839;DHT22;10580;51.092;6.828;2022-09-09T04:53:01;16.80;99.90
20839;DHT22;10580;51.092;6.828;2022-09-09T04:55:27;16.80;99.90
20839;DHT22;10580;51.092;6.828;2022-09-09T04:57:53;16.80;99.90
20839;DHT22;10580;51.092;6.828;2022-09-09T05:00:19;16.80;99.90
20839;DHT22;10580;51.092;6.828;2022-09-09T05:02:44;16.90;99.90
20839;DHT22;10580;51.092;6.828;2022-09-09T05:05:10;16.90;99.90
20839;DHT22;10580;51.092;6.828;2022-09-09T05:07:36;16.90;99.90
20839;DHT22;10580;51.092;6.828;2022-09-09T05:10:02;16.90;99.90
20839;DHT22;10580;51.092;6.828;2022-09-09T05:12:30;16.90;99.90
20839;DHT22;10580;51.092;6.828;2022-09-09T05:14:56;16.90;99.90
20839;DHT22;10580;51.092;6.828;2022-09-09T05:17:23;16.90;99.90
20839;DHT22;10580;51.092;6.828;2022-09-09T05:19:48;17.00;99.90
20839;DHT22;10580;51.092;6.828;2022-09-09T05:22:21;17.00;99.90
20839;DHT22;10580;51.092;6.828;2022-09-09T05:24:49;17.00;99.90
20839;DHT22;10580;51.092;6.828;2022-09-09T05:27:16;17.00;99.90
20839;DHT22;10580;51.092;6.828;2022-09-09T05:29:43;17.10;99.90
20839;DHT22;10580;51.092;6.828;2022-09-09T05:32:09;17.10;99.90
20839;DHT22;10580;51.092;6.828;2022-09-09T05:34:35;17.10;99.90
20839;DHT22;10580;51.092;6.828;2022-09-09T05:37:03;17.20;94.90
20839;DHT22;10580;51.092;6.828;2022-09-09T05:39:29;17.20;58.00
20839;DHT22;10580;51.092;6.828;2022-09-09T05:41:55;17.20;28.90
20839;DHT22;10580;51.092;6.828;2022-09-09T05:44:20;17.30;31.90
20839;DHT22;10580;51.092;6.828;2022-09-09T05:46:48;17.30;14.40
20839;DHT22;10580;51.092;6.828;2022-09-09T05:49:15;17.30;1.00
20839;DHT22;10580;51.092;6.828;2022-09-09T05:51:40;17.30;10.40
20839;DHT22;10580;51.092;6.828;2022-09-09T05:54:07;17.30;1.00
20839;DHT22;10580;51.092;6.828;2022-09-09T05:56:33;17.30;1.00
20839;DHT22;10580;51.092;6.828;2022-09-09T05:58:58;17.30;1.00
20839;DHT22;10580;51.092;6.828;2022-09-09T06:01:36;17.30;1.00
20839;DHT22;10580;51.092;6.828;2022-09-09T06:04:02;17.30;1.00
20839;DHT22;10580;51.092;6.828;2022-09-09T06:06:32;17.30;1.00
20839;DHT22;10580;51.092;6.828;2022-09-09T06:09:03;17.30;1.00
20839;DHT22;10580;51.092;6.828;2022-09-09T06:11:32;17.30;1.00
20839;DHT22;10580;51.092;6.828;2022-09-09T06:13:59;17.40;1.00
20839;DHT22;10580;51.092;6.828;2022-09-09T06:16:27;17.40;1.00
20839;DHT22;10580;51.092;6.828;2022-09-09T06:19:21;17.40;1.00
20839;DHT22;10580;51.092;6.828;2022-09-09T06:21:48;17.40;1.00
20839;DHT22;10580;51.092;6.828;2022-09-09T06:24:15;17.30;1.00
20839;DHT22;10580;51.092;6.828;2022-09-09T06:26:42;17.30;1.00
20839;DHT22;10580;51.092;6.828;2022-09-09T06:29:09;17.40;1.00
20839;DHT22;10580;51.092;6.828;2022-09-09T06:31:36;17.40;1.00
20839;DHT22;10580;51.092;6.828;2022-09-09T06:34:05;17.40;1.00
20839;DHT22;10580;51.092;6.828;2022-09-09T06:36:32;17.40;1.00
20839;DHT22;10580;51.092;6.828;2022-09-09T06:38:59;17.50;1.00
20839;DHT22;10580;51.092;6.828;2022-09-09T06:41:29;17.70;1.00
20839;DHT22;10580;51.092;6.828;2022-09-09T06:43:55;18.00;1.00
20839;DHT22;10580;51.092;6.828;2022-09-09T06:46:27;18.20;1.00
20839;DHT22;10580;51.092;6.828;2022-09-09T06:48:53;18.20;1.00
20839;DHT22;10580;51.092;6.828;2022-09-09T06:51:30;18.30;1.00
20839;DHT22;10580;51.092;6.828;2022-09-09T06:53:57;18.40;1.00
20839;DHT22;10580;51.092;6.828;2022-09-09T06:56:37;18.50;99.90
20839;DHT22;10580;51.092;6.828;2022-09-09T06:59:06;18.80;99.90
20839;DHT22;10580;51.092;6.828;2022-09-09T07:01:49;19.00;1.00
20839;DHT22;10580;51.092;6.828;2022-09-09T07:04:17;19.30;1.00
20839;DHT22;10580;51.092;6.828;2022-09-09T07:06:46;19.60;99.90
20839;DHT22;10580;51.092;6.828;2022-09-09T07:09:14;19.50;92.80
20839;DHT22;10580;51.092;6.828;2022-09-09T07:11:41;19.30;1.00
20839;DHT22;10580;51.092;6.828;2022-09-09T07:14:08;19.00;1.00
20839;DHT22;10580;51.092;6.828;2022-09-09T07:16:34;18.90;1.00
20839;DHT22;10580;51.092;6.828;2022-09-09T07:19:03;18.70;1.00
20839;DHT22;10580;51.092;6.828;2022-09-09T07:21:30;18.60;99.90
20839;DHT22;10580;51.092;6.828;2022-09-09T07:23:56;18.60;31.60
20839;DHT22;10580;51.092;6.828;2022-09-09T07:26:25;18.40;99.90
20839;DHT22;10580;51.092;6.828;2022-09-09T07:28:51;18.50;99.90
20839;DHT22;10580;51.092;6.828;2022-09-09T07:31:22;18.70;1.00
20839;DHT22;10580;51.092;6.828;2022-09-09T07:33:48;18.90;99.90
20839;DHT22;10580;51.092;6.828;2022-09-09T07:36:17;19.70;1.00
20839;DHT22;10580;51.092;6.828;2022-09-09T07:38:48;21.10;1.00
20839;DHT22;10580;51.092;6.828;2022-09-09T07:41:26;22.70;1.00
20839;DHT22;10580;51.092;6.828;2022-09-09T07:43:58;22.20;99.90
20839;DHT22;10580;51.092;6.828;2022-09-09T07:46:26;21.90;99.90
20839;DHT22;10580;51.092;6.828;2022-09-09T07:48:55;21.80;1.00
20839;DHT22;10580;51.092;6.828;2022-09-09T07:51:33;21.20;1.00
20839;DHT22;10580;51.092;6.828;2022-09-09T07:54:04;20.80;1.00
20839;DHT22;10580;51.092;6.828;2022-09-09T07:56:31;19.90;99.90
20839;DHT22;10580;51.092;6.828;2022-09-09T07:58:58;19.60;1.00
20839;DHT22;10580;51.092;6.828;2022-09-09T08:01:29;19.60;1.00
20839;DHT22;10580;51.092;6.828;2022-09-09T08:04:01;19.70;99.90
20839;DHT22;10580;51.092;6.828;2022-09-09T08:06:29;19.60;1.00
20839;DHT22;10580;51.092;6.828;2022-09-09T08:08:55;19.60;99.90
20839;DHT22;10580;51.092;6.828;2022-09-09T08:11:22;19.40;1.00
20839;DHT22;10580;51.092;6.828;2022-09-09T08:13:49;19.40;1.00
20839;DHT22;10580;51.092;6.828;2022-09-09T08:16:18;19.30;99.90
20839;DHT22;10580;51.092;6.828;2022-09-09T08:18:47;19.30;99.90
20839;DHT22;10580;51.092;6.828;2022-09-09T08:21:19;19.70;1.00
20839;DHT22;10580;51.092;6.828;2022-09-09T08:23:47;19.80;1.00
20839;DHT22;10580;51.092;6.828;2022-09-09T08:26:15;19.90;1.00
20839;DHT22;10580;51.092;6.828;2022-09-09T08:28:41;20.00;99.90
20839;DHT22;10580;51.092;6.828;2022-09-09T08:31:14;20.10;1.00
20839;DHT22;10580;51.092;6.828;2022-09-09T08:33:42;20.00;1.00
20839;DHT22;10580;51.092;6.828;2022-09-09T08:36:13;20.10;1.00
20839;DHT22;10580;51.092;6.828;2022-09-09T08:38:40;20.40;1.00
20839;DHT22;10580;51.092;6.828;2022-09-09T08:49:59;20.10;99.90
20839;DHT22;10580;51.092;6.828;2022-09-09T08:52:55;19.90;99.90
20839;DHT22;10580;51.092;6.828;2022-09-09T08:58:19;19.90;99.90
20839;DHT22;10580;51.092;6.828;2022-09-09T09:03:35;19.80;99.90
20839;DHT22;10580;51.092;6.828;2022-09-09T09:06:38;19.90;99.90
20839;DHT22;10580;51.092;6.828;2022-09-09T09:09:38;20.10;1.00
20839;DHT22;10580;51.092;6.828;2022-09-09T09:12:41;20.40;1.00
20839;DHT22;10580;51.092;6.828;2022-09-09T09:15:18;20.20;19.10
20839;DHT22;10580;51.092;6.828;2022-09-09T09:37:35;19.70;45.10
20839;DHT22;10580;51.092;6.828;2022-09-09T09:40:12;19.80;99.90
20839;DHT22;10580;51.092;6.828;2022-09-09T09:42:47;19.90;74.80
20839;DHT22;10580;51.092;6.828;2022-09-09T09:48:09;20.30;35.80
20839;DHT22;10580;51.092;6.828;2022-09-09T09:50:35;20.40;1.00
20839;DHT22;10580;51.092;6.828;2022-09-09T09:53:17;20.40;1.00
20839;DHT22;10580;51.092;6.828;2022-09-09T09:58:57;20.40;1.00
20839;DHT22;10580;51.092;6.828;2022-09-09T10:01:30;20.40;60.60
20839;DHT22;10580;51.092;6.828;2022-09-09T10:04:01;20.50;99.90
20839;DHT22;10580;51.092;6.828;2022-09-09T10:08:58;21.00;99.90
20839;DHT22;10580;51.092;6.828;2022-09-09T10:11:46;21.30;1.00
20839;DHT22;10580;51.092;6.828;2022-09-09T10:14:21;21.20;1.00
20839;DHT22;10580;51.092;6.828;2022-09-09T10:19:34;21.20;1.00
20839;DHT22;10580;51.092;6.828;2022-09-09T10:24:48;21.30;1.00
20839;DHT22;10580;51.092;6.828;2022-09-09T10:27:19;21.90;1.00
20839;DHT22;10580;51.092;6.828;2022-09-09T10:32:40;22.20;1.00
20839;DHT22;10580;51.092;6.828;2022-09-09T10:40:37;21.80;1.00
20839;DHT22;10580;51.092;6.828;2022-09-09T10:48:46;21.60;1.00
20839;DHT22;10580;51.092;6.828;2022-09-09T10:52:01;21.60;1.00
20839;DHT22;10580;51.092;6.828;2022-09-09T10:57:08;21.00;1.00
20839;DHT22;10580;51.092;6.828;2022-09-09T10:59:43;20.90;1.00
20839;DHT22;10580;51.092;6.828;2022-09-09T11:02:31;20.90;1.00
20839;DHT22;10580;51.092;6.828;2022-09-09T11:05:05;20.90;1.00
20839;DHT22;10580;51.092;6.828;2022-09-09T11:10:38;21.00;99.90
20839;DHT22;10580;51.092;6.828;2022-09-09T11:13:10;21.00;1.00
20839;DHT22;10580;51.092;6.828;2022-09-09T11:15:44;20.80;1.00
20839;DHT22;10580;51.092;6.828;2022-09-09T11:18:20;20.70;1.00
20839;DHT22;10580;51.092;6.828;2022-09-09T11:20:51;20.80;1.00
20839;DHT22;10580;51.092;6.828;2022-09-09T11:23:24;20.60;1.00
20839;DHT22;10580;51.092;6.828;2022-09-09T11:25:56;20.50;99.90
20839;DHT22;10580;51.092;6.828;2022-09-09T11:37:25;20.40;99.90
20839;DHT22;10580;51.092;6.828;2022-09-09T11:40:18;20.70;22.90
20839;DHT22;10580;51.092;6.828;2022-09-09T11:42:45;20.90;1.00
20839;DHT22;10580;51.092;6.828;2022-09-09T11:45:27;20.80;1.00
20839;DHT22;10580;51.092;6.828;2022-09-09T11:47:59;20.90;1.00
20839;DHT22;10580;51.092;6.828;2022-09-09T11:55:32;20.60;1.00
20839;DHT22;10580;51.092;6.828;2022-09-09T11:58:16;20.40;99.90
20839;DHT22;10580;51.092;6.828;2022-09-09T12:00:45;20.40;99.90
20839;DHT22;10580;51.092;6.828;2022-09-09T12:06:12;20.10;99.90
20839;DHT22;10580;51.092;6.828;2022-09-09T12:08:42;20.00;99.90
20839;DHT22;10580;51.092;6.828;2022-09-09T12:11:08;20.00;99.90
20839;DHT22;10580;51.092;6.828;2022-09-09T12:13:34;20.00;1.00
20839;DHT22;10580;51.092;6.828;2022-09-09T12:16:00;20.00;1.00
20839;DHT22;10580;51.092;6.828;2022-09-09T12:18:35;20.20;99.90
20839;DHT22;10580;51.092;6.828;2022-09-09T12:26:58;21.40;68.60
20839;DHT22;10580;51.092;6.828;2022-09-09T12:29:33;21.50;1.00
20839;DHT22;10580;51.092;6.828;2022-09-09T12:32:06;21.70;1.00
20839;DHT22;10580;51.092;6.828;2022-09-09T12:34:41;21.80;86.80
20839;DHT22;10580;51.092;6.828;2022-09-09T12:37:35;21.90;99.90
20839;DHT22;10580;51.092;6.828;2022-09-09T12:40:28;21.70;1.00
20839;DHT22;10580;51.092;6.828;2022-09-09T12:42:54;21.90;1.00
20839;DHT22;10580;51.092;6.828;2022-09-09T12:45:26;21.70;1.00
20839;DHT22;10580;51.092;6.828;2022-09-09T12:50:22;21.00;99.90
20839;DHT22;10580;51.092;6.828;2022-09-09T12:52:56;20.40;99.90
20839;DHT22;10580;51.092;6.828;2022-09-09T12:55:31;19.40;99.90
20839;DHT22;10580;51.092;6.828;2022-09-09T12:58:00;19.30;1.00
20839;DHT22;10580;51.092;6.828;2022-09-09T13:00:29;19.30;1.00
20839;DHT22;10580;51.092;6.828;2022-09-09T13:02:57;19.70;1.00
20839;DHT22;10580;51.092;6.828;2022-09-09T13:05:25;20.40;1.00
20839;DHT22;10580;51.092;6.828;2022-09-09T13:07:52;21.20;1.00
20839;DHT22;10580;51.092;6.828;2022-09-09T13:10:28;21.80;99.90
20839;DHT22;10580;51.092;6.828;2022-09-09T13:12:54;22.10;1.00
20839;DHT22;10580;51.092;6.828;2022-09-09T13:15:53;22.00;99.90
20839;DHT22;10580;51.092;6.828;2022-09-09T13:18:21;22.10;99.90
20839;DHT22;10580;51.092;6.828;2022-09-09T13:20:48;22.20;1.00
20839;DHT22;10580;51.092;6.828;2022-09-09T13:23:16;21.60;99.90
20839;DHT22;10580;51.092;6.828;2022-09-09T13:25:55;21.50;1.00
20839;DHT22;10580;51.092;6.828;2022-09-09T13:28:23;20.90;99.90
20839;DHT22;10580;51.092;6.828;2022-09-09T13:31:00;20.80;1.00
20839;DHT22;10580;51.092;6.828;2022-09-09T13:33:37;20.70;1.00
20839;DHT22;10580;51.092;6.828;2022-09-09T13:36:04;21.10;99.90
20839;DHT22;10580;51.092;6.828;2022-09-09T13:38:38;21.30;1.00
20839;DHT22;10580;51.092;6.828;2022-09-09T13:41:06;21.90;1.00
20839;DHT22;10580;51.092;6.828;2022-09-09T13:43:52;22.20;1.00
20839;DHT22;10580;51.092;6.828;2022-09-09T13:51:38;22.30;99.90
20839;DHT22;10580;51.092;6.828;2022-09-09T13:54:05;22.50;99.90
20839;DHT22;10580;51.092;6.828;2022-09-09T13:56:35;22.80;12.80
20839;DHT22;10580;51.092;6.828;2022-09-09T13:59:03;23.10;1.00
20839;DHT22;10580;51.092;6.828;2022-09-09T14:01:29;22.90;1.00
20839;DHT22;10580;51.092;6.828;2022-09-09T14:03:55;22.70;1.00
20839;DHT22;10580;51.092;6.828;2022-09-09T14:06:21;23.00;1.00
20839;DHT22;10580;51.092;6.828;2022-09-09T14:08:49;23.10;1.00
20839;DHT22;10580;51.092;6.828;2022-09-09T14:11:16;23.10;1.00
20839;DHT22;10580;51.092;6.828;2022-09-09T14:13:42;23.00;1.00
20839;DHT22;10580;51.092;6.828;2022-09-09T14:16:07;22.80;1.00
20839;DHT22;10580;51.092;6.828;2022-09-09T14:18:33;22.60;1.00
20839;DHT22;10580;51.092;6.828;2022-09-09T14:21:01;22.80;1.00
20839;DHT22;10580;51.092;6.828;2022-09-09T14:23:28;23.00;18.80
20839;DHT22;10580;51.092;6.828;2022-09-09T14:25:57;23.00;1.00
20839;DHT22;10580;51.092;6.828;2022-09-09T14:28:23;22.80;1.00
20839;DHT22;10580;51.092;6.828;2022-09-09T14:30:49;22.70;54.50
20839;DHT22;10580;51.092;6.828;2022-09-09T14:33:15;22.30;1.00
20839;DHT22;10580;51.092;6.828;2022-09-09T14:35:41;21.80;1.00
20839;DHT22;10580;51.092;6.828;2022-09-09T14:38:15;21.60;1.00
20839;DHT22;10580;51.092;6.828;2022-09-09T14:40:45;21.40;1.00
20839;DHT22;10580;51.092;6.828;2022-09-09T14:43:11;21.10;1.00
20839;DHT22;10580;51.092;6.828;2022-09-09T14:45:36;20.90;1.00
20839;DHT22;10580;51.092;6.828;2022-09-09T14:48:03;20.60;99.90
20839;DHT22;10580;51.092;6.828;2022-09-09T14:50:29;20.60;1.00
20839;DHT22;10580;51.092;6.828;2022-09-09T14:52:54;20.60;99.90
20839;DHT22;10580;51.092;6.828;2022-09-09T14:55:20;20.50;99.90
20839;DHT22;10580;51.092;6.828;2022-09-09T14:57:46;20.50;1.00
20839;DHT22;10580;51.092;6.828;2022-09-09T15:00:12;20.40;97.20
20839;DHT22;10580;51.092;6.828;2022-09-09T15:02:38;20.50;99.90
20839;DHT22;10580;51.092;6.828;2022-09-09T15:05:05;20.40;20.70
20839;DHT22;10580;51.092;6.828;2022-09-09T15:07:31;20.50;1.00
20839;DHT22;10580;51.092;6.828;2022-09-09T15:09:57;20.30;1.00
20839;DHT22;10580;51.092;6.828;2022-09-09T15:12:23;20.10;1.00
20839;DHT22;10580;51.092;6.828;2022-09-09T15:14:49;20.00;99.90
20839;DHT22;10580;51.092;6.828;2022-09-09T15:17:16;19.80;1.00
20839;DHT22;10580;51.092;6.828;2022-09-09T15:19:41;19.80;99.90
20839;DHT22;10580;51.092;6.828;2022-09-09T15:22:08;19.70;99.90
20839;DHT22;10580;51.092;6.828;2022-09-09T15:24:34;19.60;99.90
20839;DHT22;10580;51.092;6.828;2022-09-09T15:27:00;19.60;1.00
20839;DHT22;10580;51.092;6.828;2022-09-09T15:29:26;19.60;1.00
20839;DHT22;10580;51.092;6.828;2022-09-09T15:31:54;19.60;1.00
20839;DHT22;10580;51.092;6.828;2022-09-09T15:34:20;19.60;99.90
20839;DHT22;10580;51.092;6.828;2022-09-09T15:36:46;19.60;99.90
20839;DHT22;10580;51.092;6.828;2022-09-09T15:39:13;19.60;1.00
20839;DHT22;10580;51.092;6.828;2022-09-09T15:41:45;19.50;1.00
20839;DHT22;10580;51.092;6.828;2022-09-09T15:44:12;19.30;1.00
20839;DHT22;10580;51.092;6.828;2022-09-09T15:46:39;19.20;1.00
20839;DHT22;10580;51.092;6.828;2022-09-09T15:49:16;19.00;36.40
20839;DHT22;10580;51.092;6.828;2022-09-09T15:51:51;19.00;96.80
20839;DHT22;10580;51.092;6.828;2022-09-09T15:54:19;19.10;99.90
20839;DHT22;10580;51.092;6.828;2022-09-09T15:56:47;19.30;99.90
20839;DHT22;10580;51.092;6.828;2022-09-09T15:59:15;19.60;99.90
20839;DHT22;10580;51.092;6.828;2022-09-09T16:01:40;19.70;99.90
20839;DHT22;10580;51.092;6.828;2022-09-09T16:04:07;19.70;99.90
20839;DHT22;10580;51.092;6.828;2022-09-09T16:06:33;19.70;99.90
20839;DHT22;10580;51.092;6.828;2022-09-09T16:08:59;19.60;94.40
20839;DHT22;10580;51.092;6.828;2022-09-09T16:11:34;19.50;30.90
20839;DHT22;10580;51.092;6.828;2022-09-09T16:14:00;19.50;19.90
20839;DHT22;10580;51.092;6.828;2022-09-09T16:16:28;19.30;1.00
20839;DHT22;10580;51.092;6.828;2022-09-09T16:19:00;19.20;9.30
20839;DHT22;10580;51.092;6.828;2022-09-09T16:21:30;19.20;85.60
20839;DHT22;10580;51.092;6.828;2022-09-09T16:24:01;19.00;1.00
20839;DHT22;10580;51.092;6.828;2022-09-09T16:26:31;18.90;2.90
20839;DHT22;10580;51.092;6.828;2022-09-09T16:28:56;18.80;88.50
20839;DHT22;10580;51.092;6.828;2022-09-09T16:31:27;18.70;85.20
20839;DHT22;10580;51.092;6.828;2022-09-09T16:33:53;18.70;99.90
20839;DHT22;10580;51.092;6.828;2022-09-09T16:36:24;18.50;99.90
20839;DHT22;10580;51.092;6.828;2022-09-09T16:38:54;18.40;99.90
20839;DHT22;10580;51.092;6.828;2022-09-09T16:41:21;18.30;99.90
20839;DHT22;10580;51.092;6.828;2022-09-09T16:43:47;18.30;99.90
20839;DHT22;10580;51.092;6.828;2022-09-09T16:46:18;18.40;99.90
20839;DHT22;10580;51.092;6.828;2022-09-09T16:48:46;18.30;99.90
20839;DHT22;10580;51.092;6.828;2022-09-09T16:51:15;18.30;99.90
20839;DHT22;10580;51.092;6.828;2022-09-09T16:53:41;18.30;99.90
20839;DHT22;10580;51.092;6.828;2022-09-09T17:06:08;18.50;99.90
20839;DHT22;10580;51.092;6.828;2022-09-09T17:08:41;18.50;99.90
20839;DHT22;10580;51.092;6.828;2022-09-09T17:55:47;17.70;99.90
20839;DHT22;10580;51.092;6.828;2022-09-09T17:58:12;17.60;99.90
20839;DHT22;10580;51.092;6.828;2022-09-09T18:00:38;17.70;99.90
20839;DHT22;10580;51.092;6.828;2022-09-09T18:03:04;17.70;99.90
20839;DHT22;10580;51.092;6.828;2022-09-09T18:05:29;17.60;99.90
20839;DHT22;10580;51.092;6.828;2022-09-09T18:07:55;17.70;99.90
20839;DHT22;10580;51.092;6.828;2022-09-09T18:10:20;17.70;99.90
20839;DHT22;10580;51.092;6.828;2022-09-09T18:12:46;17.70;99.90
20839;DHT22;10580;51.092;6.828;2022-09-09T18:15:11;17.70;99.90
20839;DHT22;10580;51.092;6.828;2022-09-09T18:17:37;17.70;99.90
20839;DHT22;10580;51.092;6.828;2022-09-09T18:20:03;17.60;99.90
20839;DHT22;10580;51.092;6.828;2022-09-09T18:22:50;17.60;99.90
20839;DHT22;10580;51.092;6.828;2022-09-09T18:25:16;17.60;99.90
20839;DHT22;10580;51.092;6.828;2022-09-09T18:27:41;17.60;99.90
20839;DHT22;10580;51.092;6.828;2022-09-09T18:30:07;17.60;99.90
20839;DHT22;10580;51.092;6.828;2022-09-09T18:35:35;17.60;99.90
20839;DHT22;10580;51.092;6.828;2022-09-09T18:38:06;17.60;99.90
20839;DHT22;10580;51.092;6.828;2022-09-09T18:44:22;17.50;99.90
20839;DHT22;10580;51.092;6.828;2022-09-09T18:47:23;17.50;99.90
20839;DHT22;10580;51.092;6.828;2022-09-09T18:49:49;17.50;99.90
20839;DHT22;10580;51.092;6.828;2022-09-09T18:52:36;17.40;99.90
20839;DHT22;10580;51.092;6.828;2022-09-09T18:55:19;17.40;99.90
20839;DHT22;10580;51.092;6.828;2022-09-09T19:11:39;17.10;99.90
20839;DHT22;10580;51.092;6.828;2022-09-09T19:14:33;17.00;99.90
20839;DHT22;10580;51.092;6.828;2022-09-09T19:30:33;16.80;99.90
20839;DHT22;10580;51.092;6.828;2022-09-09T19:32:58;16.80;99.90
20839;DHT22;10580;51.092;6.828;2022-09-09T19:35:25;16.70;99.90
20839;DHT22;10580;51.092;6.828;2022-09-09T19:41:25;16.70;99.90
20839;DHT22;10580;51.092;6.828;2022-09-09T19:44:14;16.70;99.90
20839;DHT22;10580;51.092;6.828;2022-09-09T19:50:14;16.70;99.90